Time;durP1;ratioP1;P1;durP2;ratioP2;P2;SDS_P1;SDS_P2;PMS_P1;PMS_P2;Temp;Humidity;BMP_temperature;BMP_pressure;BME280_temperature;BME280_humidity;BME280_pressure;Samples;Min_cycle;Max_cycle;Signal;HPM_P1;HPM_P2
2023/08/06 14:21:34;;;;;;;;;0.00;0.00;;;;;-146.67;100.00;57155.34;6209592;22;1865377;-83
2023/08/06 14:24:00;;;;;;;;;0.00;0.00;;;;;-146.67;100.00;57155.34;6388197;22;8788;-82
2023/08/06 14:26:25;;;;;;;;;1.00;0.00;;;;;-146.67;100.00;57155.34;6359434;22;8746;-83
2023/08/06 14:28:54;;;;;;;;;0.00;0.00;;;;;-146.67;100.00;57155.34;6362815;22;9476;-83
2023/08/06 14:31:20;;;;;;;;;0.00;0.00;;;;;-146.67;100.00;57155.34;6362797;22;8737;-80
2023/08/06 14:33:46;;;;;;;;;0.00;0.00;;;;;-146.67;100.00;57155.34;6362611;22;8748;-82
2023/08/06 14:36:11;;;;;;;;;0.00;0.00;;;;;-146.67;100.00;57155.34;6359821;22;8749;-85
2023/08/06 14:38:36;;;;;;;;;2.33;0.00;;;;;-146.67;100.00;57155.34;6359749;22;8753;-82
2023/08/06 14:41:04;;;;;;;;;2.33;0.00;;;;;-146.67;100.00;57155.34;6355426;22;10722;-79
2023/08/06 14:43:37;;;;;;;;;0.00;0.00;;;;;-146.67;100.00;57155.34;6358049;22;8760;-82
2023/08/06 14:46:08;;;;;;;;;0.00;0.00;;;;;-146.67;100.00;57155.34;6360518;22;8817;-79
2023/08/06 14:48:34;;;;;;;;;0.00;0.00;;;;;-146.67;100.00;57155.34;6360980;22;8729;-78
2023/08/06 14:50:59;;;;;;;;;0.00;0.00;;;;;-146.67;100.00;57155.34;6356679;22;10670;-78
2023/08/06 14:53:25;;;;;;;;;0.00;0.00;;;;;-146.67;100.00;57155.34;6359113;22;8797;-79
2023/08/06 14:55:55;;;;;;;;;0.00;0.00;;;;;-146.67;100.00;57155.34;6360823;22;8855;-80
2023/08/06 14:58:21;;;;;;;;;0.00;0.00;;;;;-146.67;100.00;57155.34;6360415;22;8824;-80
2023/08/06 15:00:47;;;;;;;;;0.67;0.33;;;;;-146.67;100.00;57155.34;6362012;22;8776;-79
2023/08/06 15:03:12;;;;;;;;;0.00;0.00;;;;;-146.67;100.00;57155.34;6359953;22;8759;-78
2023/08/06 15:05:38;;;;;;;;;0.00;0.00;;;;;-146.67;100.00;57155.34;6385913;22;8729;-79
2023/08/06 15:08:04;;;;;;;;;0.33;0.00;;;;;-146.67;100.00;57155.34;6360469;22;10130;-79
2023/08/06 15:10:30;;;;;;;;;0.00;0.00;;;;;-146.67;100.00;57155.34;6359916;22;9756;-78
2023/08/06 15:12:56;;;;;;;;;1.00;0.00;;;;;-146.67;100.00;57155.34;6361142;22;8729;-78
2023/08/06 15:15:22;;;;;;;;;0.00;0.00;;;;;-146.67;100.00;57155.34;6361492;22;8801;-77
2023/08/06 15:17:47;;;;;;;;;1.67;0.67;;;;;-146.67;100.00;57155.34;6359780;22;8739;-79
2023/08/06 15:20:13;;;;;;;;;1.00;1.00;;;;;-146.67;100.00;57155.34;6357595;22;10008;-77
2023/08/06 15:22:38;;;;;;;;;0.00;0.00;;;;;-146.67;100.00;57155.34;6361667;22;8737;-77
2023/08/06 15:25:04;;;;;;;;;0.00;0.00;;;;;-146.67;100.00;57155.34;6361106;22;8768;-76
2023/08/06 15:27:30;;;;;;;;;0.00;0.00;;;;;-146.67;100.00;57155.34;6361041;22;8782;-79
2023/08/06 15:29:55;;;;;;;;;0.00;0.00;;;;;-146.67;100.00;57155.34;6359851;22;9915;-77
2023/08/06 15:32:22;;;;;;;;;0.00;0.00;;;;;-146.67;100.00;57155.34;6362826;22;8761;-74
2023/08/06 15:34:48;;;;;;;;;0.00;0.00;;;;;-146.67;100.00;57155.34;6361795;22;8709;-76
2023/08/06 15:37:13;;;;;;;;;0.00;0.00;;;;;-146.67;100.00;57155.34;6361168;22;9154;-75
2023/08/06 15:39:40;;;;;;;;;0.00;0.00;;;;;-146.67;100.00;57155.34;6362605;22;8741;-80
2023/08/06 15:42:05;;;;;;;;;0.00;0.00;;;;;-146.67;100.00;57155.34;6361609;22;8753;-78
2023/08/06 15:44:31;;;;;;;;;1.67;0.00;;;;;-146.67;100.00;57155.34;6386121;22;8868;-76
2023/08/06 15:46:56;;;;;;;;;1.00;0.00;;;;;-146.67;100.00;57155.34;6378920;22;8979;-77
2023/08/06 15:49:22;;;;;;;;;1.00;0.00;;;;;-146.67;100.00;57155.34;6361073;22;8757;-79
2023/08/06 15:51:54;;;;;;;;;0.33;0.00;;;;;-146.67;100.00;57155.34;6361001;22;8757;-78
2023/08/06 15:54:20;;;;;;;;;0.00;0.00;;;;;-146.67;100.00;57155.34;6361811;22;9023;-80
2023/08/06 15:56:45;;;;;;;;;0.00;0.00;;;;;-146.67;100.00;57155.34;6359726;22;9154;-78
2023/08/06 15:59:22;;;;;;;;;1.00;0.00;;;;;-146.67;100.00;57155.34;6355051;22;8757;-81
2023/08/06 16:01:49;;;;;;;;;0.00;0.00;;;;;-146.67;100.00;57155.34;6386657;22;8782;-78
2023/08/06 16:04:17;;;;;;;;;0.33;0.00;;;;;-146.67;100.00;57155.34;6360577;22;9123;-78
2023/08/06 16:06:53;;;;;;;;;0.00;0.00;;;;;-146.67;100.00;57155.34;6357709;22;9340;-77
2023/08/06 16:09:26;;;;;;;;;1.00;0.00;;;;;-146.67;100.00;57155.34;6360942;22;9503;-79
2023/08/06 16:11:53;;;;;;;;;0.00;0.00;;;;;-146.67;100.00;57155.34;6359506;22;9109;-78
2023/08/06 16:14:33;;;;;;;;;0.00;0.00;;;;;-146.67;100.00;57155.34;6356234;22;9145;-79
2023/08/06 16:16:59;;;;;;;;;0.00;0.00;;;;;-146.67;100.00;57155.34;6357369;22;8982;-78
2023/08/06 16:19:25;;;;;;;;;0.00;0.00;;;;;-146.67;100.00;57155.34;6360941;22;9145;-79
2023/08/06 16:21:50;;;;;;;;;0.00;0.00;;;;;-146.67;100.00;57155.34;6359301;22;8797;-78
2023/08/06 16:24:15;;;;;;;;;0.00;0.00;;;;;-146.67;100.00;57155.34;6359231;22;8760;-81
2023/08/06 16:26:41;;;;;;;;;0.00;0.00;;;;;-146.67;100.00;57155.34;6357743;22;8769;-81
2023/08/06 16:29:07;;;;;;;;;0.00;0.00;;;;;-146.67;100.00;57155.34;6358612;22;9792;-77
2023/08/06 16:31:35;;;;;;;;;0.00;0.00;;;;;-146.67;100.00;57155.34;6353949;22;8704;-77
2023/08/06 16:34:05;;;;;;;;;0.00;0.00;;;;;-146.67;100.00;57155.34;6359810;22;9134;-77
2023/08/06 16:36:31;;;;;;;;;0.00;0.00;;;;;-146.67;100.00;57155.34;6359968;22;9150;-77
2023/08/06 16:38:57;;;;;;;;;0.00;0.00;;;;;-146.67;100.00;57155.34;6361095;22;9864;-77
2023/08/06 16:41:23;;;;;;;;;0.00;0.00;;;;;-146.67;100.00;57155.34;6361153;22;9130;-77
2023/08/06 16:43:48;;;;;;;;;0.00;0.00;;;;;-146.67;100.00;57155.34;6360278;22;8749;-76
2023/08/06 16:46:14;;;;;;;;;5.00;2.33;;;;;-146.67;100.00;57155.34;6357541;22;8737;-76
2023/08/06 16:48:39;;;;;;;;;0.00;0.00;;;;;-146.67;100.00;57155.34;6359305;22;8757;-76
2023/08/06 16:51:05;;;;;;;;;1.33;0.00;;;;;-146.67;100.00;57155.34;6360072;22;8755;-75
2023/08/06 16:53:31;;;;;;;;;0.33;0.00;;;;;-146.67;100.00;57155.34;6358828;22;8745;-75
2023/08/06 16:55:58;;;;;;;;;2.67;2.00;;;;;-146.67;100.00;57155.34;6358501;22;8732;-77
2023/08/06 16:58:25;;;;;;;;;0.00;0.00;;;;;-146.67;100.00;57155.34;6360994;22;8662;-76
2023/08/06 17:00:50;;;;;;;;;7.00;3.50;;;;;-146.67;100.00;57155.34;6357431;22;9140;-77
2023/08/06 17:03:16;;;;;;;;;0.00;0.00;;;;;-146.67;100.00;57155.34;6361398;22;9604;-79
2023/08/06 17:05:43;;;;;;;;;1.00;1.00;;;;;-146.67;100.00;57155.34;6384812;22;8837;-79
2023/08/06 17:08:15;;;;;;;;;0.00;0.00;;;;;-146.67;100.00;57155.34;6360223;22;8725;-79
2023/08/06 17:10:40;;;;;;;;;0.00;0.00;;;;;-146.67;100.00;57155.34;6359525;22;9305;-78
2023/08/06 17:13:06;;;;;;;;;1.00;0.00;;;;;-146.67;100.00;57155.34;6360212;22;9350;-79
2023/08/06 17:15:32;;;;;;;;;0.67;0.67;;;;;-146.67;100.00;57155.34;6362296;22;8779;-78
2023/08/06 17:17:59;;;;;;;;;0.67;0.67;;;;;-146.67;100.00;57155.34;6360168;22;9937;-77
2023/08/06 17:20:24;;;;;;;;;0.00;0.00;;;;;-146.67;100.00;57155.34;6360806;22;8773;-77
2023/08/06 17:22:50;;;;;;;;;0.00;0.00;;;;;-146.67;100.00;57155.34;6361060;22;9585;-76
2023/08/06 17:25:16;;;;;;;;;0.00;0.00;;;;;-146.67;100.00;57155.34;6385249;22;8729;-78
2023/08/06 17:27:42;;;;;;;;;0.67;0.00;;;;;-146.67;100.00;57155.34;6361085;22;10196;-80
2023/08/06 17:30:08;;;;;;;;;0.33;0.33;;;;;-146.67;100.00;57155.34;6359388;22;8761;-80
2023/08/06 17:32:33;;;;;;;;;0.33;0.00;;;;;-146.67;100.00;57155.34;6360478;22;9389;-78
2023/08/06 17:34:59;;;;;;;;;0.33;0.00;;;;;-146.67;100.00;57155.34;6386288;22;8859;-79
2023/08/06 17:37:24;;;;;;;;;0.00;0.00;;;;;-146.67;100.00;57155.34;6385676;22;9910;-79
2023/08/06 17:39:49;;;;;;;;;0.00;0.00;;;;;-146.67;100.00;57155.34;6361796;22;8729;-79
2023/08/06 17:42:15;;;;;;;;;0.00;0.00;;;;;-146.67;100.00;57155.34;6361715;22;8785;-77
2023/08/06 17:44:40;;;;;;;;;0.00;0.00;;;;;-146.67;100.00;57155.34;6361578;22;8753;-78
2023/08/06 17:47:06;;;;;;;;;0.00;0.00;;;;;-146.67;100.00;57155.34;6362464;22;8757;-78
2023/08/06 17:49:32;;;;;;;;;0.00;0.00;;;;;-146.67;100.00;57155.34;6361005;22;8756;-78
2023/08/06 17:51:57;;;;;;;;;1.00;0.00;;;;;-146.67;100.00;57155.34;6386637;22;8765;-79
2023/08/06 17:54:24;;;;;;;;;0.00;0.00;;;;;-146.67;100.00;57155.34;6385811;22;8764;-78
2023/08/06 17:56:49;;;;;;;;;0.00;0.00;;;;;-146.67;100.00;57155.34;6362271;22;8756;-78
2023/08/06 17:59:15;;;;;;;;;0.00;0.00;;;;;-146.67;100.00;57155.34;6361696;22;9155;-78
2023/08/06 18:01:40;;;;;;;;;0.00;0.00;;;;;-146.67;100.00;57155.34;6362276;22;8761;-79
2023/08/06 18:04:05;;;;;;;;;0.00;0.00;;;;;-146.67;100.00;57155.34;6360127;22;9305;-78
2023/08/06 18:06:31;;;;;;;;;0.67;0.00;;;;;-146.67;100.00;57155.34;6356672;22;10073;-77
2023/08/06 18:08:56;;;;;;;;;0.00;0.00;;;;;-146.67;100.00;57155.34;6356946;22;8772;-79
2023/08/06 18:11:22;;;;;;;;;0.00;0.00;;;;;-146.67;100.00;57155.34;6360762;22;8741;-78
2023/08/06 18:13:47;;;;;;;;;1.00;0.00;;;;;-146.67;100.00;57155.34;6359783;22;8806;-77
2023/08/06 18:16:13;;;;;;;;;1.00;0.00;;;;;-146.67;100.00;57155.34;6360655;22;8767;-79
2023/08/06 18:18:38;;;;;;;;;0.00;0.00;;;;;-146.67;100.00;57155.34;6360855;22;8729;-78
2023/08/06 18:21:04;;;;;;;;;0.00;0.00;;;;;-146.67;100.00;57155.34;6360694;22;9564;-77
2023/08/06 18:23:29;;;;;;;;;0.00;0.00;;;;;-146.67;100.00;57155.34;6360728;22;8824;-78
2023/08/06 18:25:56;;;;;;;;;0.00;0.00;;;;;-146.67;100.00;57155.34;6360789;22;8791;-78
2023/08/06 18:28:22;;;;;;;;;0.00;0.00;;;;;-146.67;100.00;57155.34;6358890;22;8768;-78
2023/08/06 18:30:48;;;;;;;;;0.25;0.00;;;;;-146.67;100.00;57155.34;6358394;22;9377;-79
2023/08/06 18:33:13;;;;;;;;;1.00;0.00;;;;;-146.67;100.00;57155.34;6385808;22;9443;-79
2023/08/06 18:35:42;;;;;;;;;0.00;0.00;;;;;-146.67;100.00;57155.34;6360344;22;8990;-78
2023/08/06 18:38:08;;;;;;;;;0.00;0.00;;;;;-146.67;100.00;57155.34;6361735;22;8741;-78
2023/08/06 18:40:33;;;;;;;;;0.00;0.00;;;;;-146.67;100.00;57155.34;6359481;22;9435;-78
2023/08/06 18:42:59;;;;;;;;;0.00;0.00;;;;;-146.67;100.00;57155.34;6358822;22;8831;-78
2023/08/06 18:45:25;;;;;;;;;0.00;0.00;;;;;-146.67;100.00;57155.34;6361479;22;8814;-78
2023/08/06 18:47:51;;;;;;;;;0.00;0.00;;;;;-146.67;100.00;57155.34;6361237;22;8721;-80
2023/08/06 18:50:17;;;;;;;;;0.00;0.00;;;;;-146.67;100.00;57155.34;6360973;22;9433;-78
2023/08/06 18:52:43;;;;;;;;;1.00;0.00;;;;;-146.67;100.00;57155.34;6361033;22;9542;-80
2023/08/06 18:55:09;;;;;;;;;0.00;0.00;;;;;-146.67;100.00;57155.34;6386236;22;9979;-79
2023/08/06 18:57:34;;;;;;;;;0.25;0.00;;;;;-146.67;100.00;57155.34;6359345;22;9507;-80
2023/08/06 19:00:00;;;;;;;;;0.00;0.00;;;;;-146.67;100.00;57155.34;6385695;22;8761;-79
2023/08/06 19:02:27;;;;;;;;;1.00;0.00;;;;;-146.67;100.00;57155.34;6358795;22;8800;-77
2023/08/06 19:04:58;;;;;;;;;0.00;0.00;;;;;-146.67;100.00;57155.34;6358875;22;9898;-80
2023/08/06 19:07:24;;;;;;;;;0.00;0.00;;;;;-146.67;100.00;57155.34;6358649;22;9579;-82
2023/08/06 19:09:49;;;;;;;;;1.00;0.00;;;;;-146.67;100.00;57155.34;6361697;22;9434;-81
2023/08/06 19:12:15;;;;;;;;;0.00;0.00;;;;;-146.67;100.00;57155.34;6356685;22;8761;-81
2023/08/06 19:14:43;;;;;;;;;1.00;0.00;;;;;-146.67;100.00;57155.34;6361389;22;8721;-80
2023/08/06 19:17:09;;;;;;;;;0.00;0.00;;;;;-146.67;100.00;57155.34;6361316;22;8728;-80
2023/08/06 19:19:34;;;;;;;;;0.00;0.00;;;;;-146.67;100.00;57155.34;6358926;22;9597;-82
2023/08/06 19:21:59;;;;;;;;;0.25;0.25;;;;;-146.67;100.00;57155.34;6381436;22;8793;-81
2023/08/06 19:24:25;;;;;;;;;1.00;0.00;;;;;-146.67;100.00;57155.34;6384721;22;9870;-79
2023/08/06 19:26:50;;;;;;;;;1.25;0.00;;;;;-146.67;100.00;57155.34;6357697;22;8757;-81
2023/08/06 19:29:16;;;;;;;;;0.00;0.00;;;;;-146.67;100.00;57155.34;6360697;22;8826;-78
2023/08/06 19:31:42;;;;;;;;;0.50;0.00;;;;;-146.67;100.00;57155.34;6361487;22;8765;-80
2023/08/06 19:34:08;;;;;;;;;0.00;0.00;;;;;-146.67;100.00;57155.34;6360699;22;8729;-78
2023/08/06 19:36:34;;;;;;;;;2.50;0.00;;;;;-146.67;100.00;57155.34;6360480;22;9850;-79
2023/08/06 19:38:59;;;;;;;;;0.00;0.00;;;;;-146.67;100.00;57155.34;6358383;22;11348;-79
2023/08/06 19:41:25;;;;;;;;;0.00;0.00;;;;;-146.67;100.00;57155.34;6358069;22;9611;-79
2023/08/06 19:43:50;;;;;;;;;0.75;0.00;;;;;-146.67;100.00;57155.34;6359655;22;9780;-78
2023/08/06 19:46:16;;;;;;;;;2.25;1.00;;;;;-146.67;100.00;57155.34;6385620;22;8761;-79
2023/08/06 19:48:41;;;;;;;;;0.00;0.00;;;;;-146.67;100.00;57155.34;6361672;22;8749;-78
2023/08/06 19:51:07;;;;;;;;;0.00;0.00;;;;;-146.67;100.00;57155.34;6385556;22;8760;-78
2023/08/06 19:53:34;;;;;;;;;0.00;0.00;;;;;-146.67;100.00;57155.34;6359503;22;9840;-78
2023/08/06 19:56:01;;;;;;;;;1.00;0.25;;;;;-146.67;100.00;57155.34;6361596;22;8751;-79
2023/08/06 19:58:28;;;;;;;;;4.00;0.00;;;;;-146.67;100.00;57155.34;6359470;22;9778;-79
2023/08/06 20:00:57;;;;;;;;;0.00;0.00;;;;;-146.67;100.00;57155.34;6361138;22;9845;-80
2023/08/06 20:03:23;;;;;;;;;2.00;0.75;;;;;-146.67;100.00;57155.34;6385990;22;9982;-77
2023/08/06 20:05:49;;;;;;;;;0.00;0.00;;;;;-146.67;100.00;57155.34;6358998;22;9771;-79
2023/08/06 20:08:16;;;;;;;;;0.00;0.00;;;;;-146.67;100.00;57155.34;6361773;22;9825;-79
2023/08/06 20:10:50;;;;;;;;;0.00;0.00;;;;;-146.67;100.00;57155.34;6360499;22;8733;-79
2023/08/06 20:13:15;;;;;;;;;1.00;1.00;;;;;-146.67;100.00;57155.34;6359794;22;10126;-80
2023/08/06 20:15:41;;;;;;;;;0.00;0.00;;;;;-146.67;100.00;57155.34;6361412;22;9930;-80
2023/08/06 20:18:07;;;;;;;;;0.75;0.00;;;;;-146.67;100.00;57155.34;6358721;22;8758;-78
2023/08/06 20:20:36;;;;;;;;;0.25;0.25;;;;;-146.67;100.00;57155.34;6359693;22;9754;-79
2023/08/06 20:23:03;;;;;;;;;0.75;0.50;;;;;-146.67;100.00;57155.34;6360941;22;8729;-76
2023/08/06 20:25:28;;;;;;;;;1.00;1.00;;;;;-146.67;100.00;57155.34;6361450;22;9776;-76
2023/08/06 20:27:55;;;;;;;;;0.00;0.00;;;;;-146.67;100.00;57155.34;6359699;22;10017;-79
2023/08/06 20:30:22;;;;;;;;;0.00;0.00;;;;;-146.67;100.00;57155.34;6386384;22;8737;-80
2023/08/06 20:32:48;;;;;;;;;1.25;1.25;;;;;-146.67;100.00;57155.34;6359072;22;10156;-81
2023/08/06 20:35:13;;;;;;;;;1.75;1.00;;;;;-146.67;100.00;57155.34;6361471;22;9982;-77
2023/08/06 20:37:38;;;;;;;;;2.25;2.00;;;;;-146.67;100.00;57155.34;6360283;22;8745;-79
2023/08/06 20:40:04;;;;;;;;;1.00;1.00;;;;;-146.67;100.00;57155.34;6358999;22;8744;-80
2023/08/06 20:42:30;;;;;;;;;2.25;1.00;;;;;-146.67;100.00;57155.34;6361495;22;8713;-79
2023/08/06 20:44:55;;;;;;;;;1.75;0.50;;;;;-146.67;100.00;57155.34;6361633;22;9889;-80
2023/08/06 20:47:21;;;;;;;;;0.00;0.00;;;;;-146.67;100.00;57155.34;6362226;22;8757;-80
2023/08/06 20:49:46;;;;;;;;;0.00;0.00;;;;;-146.67;100.00;57155.34;6361883;22;8835;-80
2023/08/06 20:52:11;;;;;;;;;1.00;1.00;;;;;-146.67;100.00;57155.34;6362224;22;8773;-80
2023/08/06 20:54:37;;;;;;;;;14.75;10.00;;;;;-146.67;100.00;57155.34;6362387;22;8756;-79
2023/08/06 20:57:02;;;;;;;;;1.00;1.00;;;;;-146.67;100.00;57155.34;6360766;22;8851;-79
2023/08/06 20:59:29;;;;;;;;;0.75;0.75;;;;;-146.67;100.00;57155.34;6386983;22;8737;-81
2023/08/06 21:01:56;;;;;;;;;0.00;0.00;;;;;-146.67;100.00;57155.34;6360347;22;9945;-80
2023/08/06 21:04:22;;;;;;;;;0.25;0.00;;;;;-146.67;100.00;57155.34;6360865;22;10045;-80
2023/08/06 21:06:47;;;;;;;;;0.00;0.00;;;;;-146.67;100.00;57155.34;6359824;22;10120;-79
2023/08/06 21:09:12;;;;;;;;;0.00;0.00;;;;;-146.67;100.00;57155.34;6362720;22;8869;-77
2023/08/06 21:11:38;;;;;;;;;1.00;1.00;;;;;-146.67;100.00;57155.34;6387161;22;9983;-80
2023/08/06 21:14:03;;;;;;;;;1.00;1.00;;;;;-146.67;100.00;57155.34;6360233;22;8768;-78
2023/08/06 21:16:28;;;;;;;;;1.00;1.00;;;;;-146.67;100.00;57155.34;6362329;22;8760;-78
2023/08/06 21:18:54;;;;;;;;;0.75;0.75;;;;;-146.67;100.00;57155.34;6361814;22;8845;-80
2023/08/06 21:21:22;;;;;;;;;0.00;0.00;;;;;-146.67;100.00;57155.34;6385201;22;9979;-78
2023/08/06 21:23:48;;;;;;;;;0.75;0.75;;;;;-146.67;100.00;57155.34;6362423;22;8713;-78
2023/08/06 21:26:15;;;;;;;;;2.00;0.00;;;;;-146.67;100.00;57155.34;6360584;22;10293;-83
2023/08/06 21:28:41;;;;;;;;;0.75;0.00;;;;;-146.67;100.00;57155.34;6387548;22;8717;-82
2023/08/06 21:31:11;;;;;;;;;0.00;0.00;;;;;-146.67;100.00;57155.34;6360242;22;10464;-81
2023/08/06 21:33:38;;;;;;;;;0.00;0.00;;;;;-146.67;100.00;57155.34;6362903;22;8725;-81
2023/08/06 21:36:05;;;;;;;;;2.25;1.00;;;;;-146.67;100.00;57155.34;6361184;22;10165;-81
2023/08/06 21:38:36;;;;;;;;;0.00;0.00;;;;;-146.67;100.00;57155.34;6362479;22;10215;-81
2023/08/06 21:41:19;;;;;;;;;0.00;0.00;;;;;-146.67;100.00;57155.34;6359750;22;10393;-79
2023/08/06 21:43:47;;;;;;;;;1.00;1.00;;;;;-146.67;100.00;57155.34;6362965;22;10214;-81
2023/08/06 21:46:19;;;;;;;;;1.50;0.00;;;;;-146.67;100.00;57155.34;6361648;22;10357;-79
2023/08/06 21:48:47;;;;;;;;;1.00;1.00;;;;;-146.67;100.00;57155.34;6362903;22;10291;-81
2023/08/06 21:51:15;;;;;;;;;1.00;1.00;;;;;-146.67;100.00;57155.34;6361417;22;10369;-81
2023/08/06 21:53:41;;;;;;;;;1.00;0.00;;;;;-146.67;100.00;57155.34;6361695;22;10438;-81
2023/08/06 21:56:09;;;;;;;;;1.50;1.00;;;;;-146.67;100.00;57155.34;6386709;22;10198;-82
2023/08/06 21:58:36;;;;;;;;;0.75;0.50;;;;;-146.67;100.00;57155.34;6362641;22;8685;-80
2023/08/06 22:01:06;;;;;;;;;0.50;0.50;;;;;-146.67;100.00;57155.34;6361202;22;10343;-81
2023/08/06 22:03:35;;;;;;;;;2.00;0.00;;;;;-146.67;100.00;57155.34;6360399;22;9835;-81
2023/08/06 22:06:01;;;;;;;;;1.00;1.00;;;;;-146.67;100.00;57155.34;6361253;22;10500;-81
2023/08/06 22:08:27;;;;;;;;;2.00;2.00;;;;;-146.67;100.00;57155.34;6362941;22;10091;-81
2023/08/06 22:10:54;;;;;;;;;4.25;2.00;;;;;-146.67;100.00;57155.34;6362569;22;10501;-81
2023/08/06 22:13:19;;;;;;;;;4.75;3.50;;;;;-146.67;100.00;57155.34;6360155;22;8713;-81
2023/08/06 22:15:45;;;;;;;;;3.00;3.00;;;;;-146.67;100.00;57155.34;6362492;22;10951;-81
2023/08/06 22:18:10;;;;;;;;;4.00;3.00;;;;;-146.67;100.00;57155.34;6361989;22;8898;-80
2023/08/06 22:20:36;;;;;;;;;3.25;3.00;;;;;-146.67;100.00;57155.34;6361386;22;8752;-81
2023/08/06 22:23:01;;;;;;;;;3.25;2.00;;;;;-146.67;100.00;57155.34;6362692;22;8737;-81
2023/08/06 22:25:30;;;;;;;;;2.00;2.00;;;;;-146.67;100.00;57155.34;6362707;22;8748;-81
2023/08/06 22:27:56;;;;;;;;;3.50;1.75;;;;;-146.67;100.00;57155.34;6362197;22;8723;-82
2023/08/06 22:30:22;;;;;;;;;6.50;2.25;;;;;-146.67;100.00;57155.34;6360377;22;10469;-81
2023/08/06 22:32:47;;;;;;;;;2.00;2.00;;;;;-146.67;100.00;57155.34;6360433;22;10525;-82
2023/08/06 22:35:15;;;;;;;;;2.25;1.25;;;;;-146.67;100.00;57155.34;6361475;22;8745;-81
2023/08/06 22:37:49;;;;;;;;;2.25;1.25;;;;;-146.67;100.00;57155.34;6360030;22;8747;-81
2023/08/06 22:40:16;;;;;;;;;2.50;1.00;;;;;-146.67;100.00;57155.34;6361761;22;10555;-81
2023/08/06 22:42:43;;;;;;;;;2.00;1.00;;;;;-146.67;100.00;57155.34;6359826;22;10293;-81
2023/08/06 22:45:09;;;;;;;;;1.50;1.00;;;;;-146.67;100.00;57155.34;6360116;22;10221;-81
2023/08/06 22:47:35;;;;;;;;;1.00;1.00;;;;;-146.67;100.00;57155.34;6360268;22;10250;-81
2023/08/06 22:50:00;;;;;;;;;2.00;1.00;;;;;-146.67;100.00;57155.34;6362046;22;10493;-82
2023/08/06 22:52:26;;;;;;;;;3.00;1.00;;;;;-146.67;100.00;57155.34;6361780;22;8730;-81
2023/08/06 22:54:52;;;;;;;;;2.00;1.00;;;;;-146.67;100.00;57155.34;6362552;22;8759;-81
2023/08/06 22:57:18;;;;;;;;;1.25;1.00;;;;;-146.67;100.00;57155.34;6362247;22;8918;-82
2023/08/06 22:59:43;;;;;;;;;2.00;0.00;;;;;-146.67;100.00;57155.34;6362389;22;11149;-82
2023/08/06 23:02:09;;;;;;;;;3.25;1.00;;;;;-146.67;100.00;57155.34;6362299;22;8776;-82
2023/08/06 23:04:34;;;;;;;;;2.25;2.25;;;;;-146.67;100.00;57155.34;6362019;22;8730;-81
2023/08/06 23:07:00;;;;;;;;;1.00;1.00;;;;;-146.67;100.00;57155.34;6360404;22;8733;-81
2023/08/06 23:09:25;;;;;;;;;2.00;0.75;;;;;-146.67;100.00;57155.34;6360148;22;9879;-81
2023/08/06 23:11:51;;;;;;;;;2.25;0.00;;;;;-146.67;100.00;57155.34;6386966;22;8769;-82
2023/08/06 23:14:16;;;;;;;;;2.25;1.00;;;;;-146.67;100.00;57155.34;6386610;22;8821;-81
2023/08/06 23:16:42;;;;;;;;;1.00;1.00;;;;;-146.67;100.00;57155.34;6387224;22;8779;-82
2023/08/06 23:19:07;;;;;;;;;0.00;0.00;;;;;-146.67;100.00;57155.34;6362130;22;8795;-82
2023/08/06 23:21:32;;;;;;;;;2.00;1.00;;;;;-146.67;100.00;57155.34;6360228;22;8781;-81
2023/08/06 23:23:58;;;;;;;;;1.00;1.00;;;;;-146.67;100.00;57155.34;6361925;22;8748;-82
2023/08/06 23:26:23;;;;;;;;;1.00;1.00;;;;;-146.67;100.00;57155.34;6359741;22;8776;-82
2023/08/06 23:28:50;;;;;;;;;0.25;0.25;;;;;-146.67;100.00;57155.34;6361799;22;8745;-81
2023/08/06 23:31:16;;;;;;;;;2.00;2.00;;;;;-146.67;100.00;57155.34;6362645;22;8756;-81
2023/08/06 23:33:41;;;;;;;;;1.25;0.75;;;;;-146.67;100.00;57155.34;6361534;22;10412;-81
2023/08/06 23:36:07;;;;;;;;;3.00;1.00;;;;;-146.67;100.00;57155.34;6359333;22;8794;-81
2023/08/06 23:38:32;;;;;;;;;2.75;0.00;;;;;-146.67;100.00;57155.34;6359953;22;10153;-81
2023/08/06 23:40:58;;;;;;;;;1.00;1.00;;;;;-146.67;100.00;57155.34;6361365;22;8765;-81
2023/08/06 23:43:23;;;;;;;;;0.75;0.75;;;;;-146.67;100.00;57155.34;6362617;22;8788;-81
2023/08/06 23:45:49;;;;;;;;;1.50;1.25;;;;;-146.67;100.00;57155.34;6361357;22;8741;-80
2023/08/06 23:48:15;;;;;;;;;1.00;0.00;;;;;-146.67;100.00;57155.34;6361878;22;8791;-81
2023/08/06 23:50:40;;;;;;;;;2.50;2.00;;;;;-146.67;100.00;57155.34;6361761;22;8685;-81
2023/08/06 23:53:05;;;;;;;;;1.00;1.00;;;;;-146.67;100.00;57155.34;6362371;22;10191;-81
2023/08/06 23:55:31;;;;;;;;;4.00;1.50;;;;;-146.67;100.00;57155.34;6361941;22;8912;-81
2023/08/06 23:57:57;;;;;;;;;1.75;1.00;;;;;-146.67;100.00;57155.34;6362477;22;8760;-81
